Aloma, Florida
Current Conditions -  °F | °C
As of 6:53 PM on Friday 31 Oct 2014 (Local Time) from KORL Reporting Station
Clear Clear  
Wind Chill: 73°   Ceiling: Unl
Heat Index: 73°   Visibility: 10mi
Dew Point: 49°   Wind: 8mph
Humidity: 42%   Direction: 310°NW
Pressure: 29.83"   Gusts: NA
Location:  28.6093°N, 81.2979°W
Report Text: KORL 312253Z 31007KT 10SM CLR 23/09 A2983 RMK AO2 SLP104 T02280094
Loading
Personal Weather Stations






























Interactive Weather Map
Tropical Storm Tracking
New forecast layout! Learn more

10-Day Weather Forecast

Advertisements
Track Severe Weather on mobile